^^
Station Historical Data
Daily Summary for March 9, 2017 Units:  Both    English   Metric
« Previous Day
Next Day »
Daily Weekly Monthly Yearly Custom
  High: Low: Average:
Temperature: 83.7 °F /  28.7 °C 60.4 °F /  15.8 °C 71.6 °F /  22 °C
Dew Point: 61.7 °F /  16.5 °C 52.5 °F /  11.4 °C 56.7 °F /  13.7 °C
Humidity: 92% 37% 63%
Wind Speed: 15.0mph /  24.1km/h - 3.3mph /  5.3km/h
Wind Gust: 18.0mph /  29km/h - -
Wind- - ESE
Pressure: 29.79 in /  1008.7 hPa 29.70 in /  1005.6 hPa -
Precipitation: 0.04 in /  1.02 mm    
Historical Graphs
 
 
Tabular Data for March 9, 2017
Time Temperature Dew Point Pressure Wind Wind Speed Wind Gust Humidity Rainfall Rate (Hourly) solar Conditions
00:02 66.7 °F /  19.3 °C 57.7 °F /  14.3 °C 29.78in /  1008.4hPa ESE 4.0mph /  6.4km/h 11.0mph /  17.7km/h 73% 0.00in /  0mm 0.0 W/m2
00:08 66.6 °F /  19.2 °C 56.8 °F /  13.8 °C 29.79in /  1008.7hPa ESE 10.1mph /  16.3km/h 13.0mph /  20.9km/h 71% 0.00in /  0mm 0.0 W/m2
00:14 66.4 °F /  19.1 °C 56.7 °F /  13.7 °C 29.79in /  1008.7hPa South 4.9mph /  7.9km/h 8.0mph /  12.9km/h 71% 0.00in /  0mm 0.0 W/m2
00:20 65.8 °F /  18.8 °C 56.1 °F /  13.4 °C 29.79in /  1008.7hPa NE 4.0mph /  6.4km/h 10.0mph /  16.1km/h 71% 0.00in /  0mm 0.0 W/m2
00:26 65.5 °F /  18.6 °C 55.8 °F /  13.2 °C 29.79in /  1008.7hPa SSE 2.9mph /  4.7km/h 10.0mph /  16.1km/h 71% 0.00in /  0mm 0.0 W/m2
00:32 65.3 °F /  18.5 °C 55.6 °F /  13.1 °C 29.79in /  1008.7hPa East 2.9mph /  4.7km/h 9.0mph /  14.5km/h 71% 0.00in /  0mm 0.0 W/m2
00:38 65.5 °F /  18.6 °C 56.7 °F /  13.7 °C 29.78in /  1008.4hPa SE 4.9mph /  7.9km/h 10.0mph /  16.1km/h 73% 0.00in /  0mm 0.0 W/m2
00:44 65.1 °F /  18.4 °C 55.9 °F /  13.3 °C 29.78in /  1008.4hPa East 8.1mph /  13km/h 10.0mph /  16.1km/h 72% 0.00in /  0mm 0.0 W/m2
00:50 64.9 °F /  18.3 °C 56.5 °F /  13.6 °C 29.78in /  1008.4hPa SE 4.0mph /  6.4km/h 7.0mph /  11.3km/h 74% 0.01in /  0.25mm 0.0 W/m2
00:56 64.8 °F /  18.2 °C 56.7 °F /  13.7 °C 29.78in /  1008.4hPa Calm   7.0mph /  11.3km/h 75% 0.01in /  0.25mm 0.0 W/m2
01:02 64.4 °F /  18 °C 57.0 °F /  13.9 °C 29.77in /  1008hPa ESE 2.9mph /  4.7km/h 6.0mph /  9.7km/h 77% 0.01in /  0.25mm 0.0 W/m2
01:08 64.0 °F /  17.8 °C 57.0 °F /  13.9 °C 29.77in /  1008hPa ESE 6.9mph /  11.1km/h 7.0mph /  11.3km/h 78% 0.01in /  0.25mm 0.0 W/m2
01:14 63.9 °F /  17.7 °C 56.8 °F /  13.8 °C 29.77in /  1008hPa ESE 0.9mph /  1.4km/h 7.0mph /  11.3km/h 78% 0.01in /  0.25mm 0.0 W/m2
01:20 63.9 °F /  17.7 °C 56.5 °F /  13.6 °C 29.77in /  1008hPa SE 2.9mph /  4.7km/h 7.0mph /  11.3km/h 77% 0.01in /  0.25mm 0.0 W/m2
01:26 63.9 °F /  17.7 °C 56.8 °F /  13.8 °C 29.78in /  1008.4hPa Calm   3.0mph /  4.8km/h 78% 0.01in /  0.25mm 0.0 W/m2
01:32 63.9 °F /  17.7 °C 57.2 °F /  14 °C 29.79in /  1008.7hPa Calm   4.0mph /  6.4km/h 79% 0.02in /  0.51mm 0.0 W/m2
01:38 63.5 °F /  17.5 °C 57.6 °F /  14.2 °C 29.79in /  1008.7hPa ESE 2.0mph /  3.2km/h 6.0mph /  9.7km/h 81% 0.02in /  0.51mm 0.0 W/m2
01:44 63.0 °F /  17.2 °C 57.7 °F /  14.3 °C 29.79in /  1008.7hPa Calm   6.0mph /  9.7km/h 83% 0.02in /  0.51mm 0.0 W/m2
01:50 62.4 °F /  16.9 °C 57.9 °F /  14.4 °C 29.79in /  1008.7hPa NE 2.9mph /  4.7km/h 7.0mph /  11.3km/h 85% 0.02in /  0.51mm 0.0 W/m2
01:56 62.1 °F /  16.7 °C 57.7 °F /  14.3 °C 29.79in /  1008.7hPa ESE 4.9mph /  7.9km/h 7.0mph /  11.3km/h 86% 0.02in /  0.51mm 0.0 W/m2
02:02 61.9 °F /  16.6 °C 57.6 °F /  14.2 °C 29.78in /  1008.4hPa Calm   6.0mph /  9.7km/h 86% 0.02in /  0.51mm 0.0 W/m2
02:08 61.5 °F /  16.4 °C 57.4 °F /  14.1 °C 29.78in /  1008.4hPa SE 2.9mph /  4.7km/h 3.0mph /  4.8km/h 86% 0.02in /  0.51mm 0.0 W/m2
02:14 61.3 °F /  16.3 °C 57.4 °F /  14.1 °C 29.77in /  1008hPa ESE 2.9mph /  4.7km/h 5.0mph /  8km/h 87% 0.02in /  0.51mm 0.0 W/m2
02:20 61.2 °F /  16.2 °C 57.2 °F /  14 °C 29.77in /  1008hPa NE 2.9mph /  4.7km/h 4.0mph /  6.4km/h 87% 0.02in /  0.51mm 0.0 W/m2
02:26 61.0 °F /  16.1 °C 57.4 °F /  14.1 °C 29.77in /  1008hPa East 0.9mph /  1.4km/h 1.0mph /  1.6km/h 88% 0.03in /  0.76mm 0.0 W/m2
02:32 60.8 °F /  16 °C 57.2 °F /  14 °C 29.77in /  1008hPa SSW 0.9mph /  1.4km/h 4.0mph /  6.4km/h 88% 0.02in /  0.51mm 0.0 W/m2
02:38 61.0 °F /  16.1 °C 58.1 °F /  14.5 °C 29.77in /  1008hPa Calm   1.0mph /  1.6km/h 90% 0.02in /  0.51mm 0.0 W/m2
02:44 61.0 °F /  16.1 °C 57.7 °F /  14.3 °C 29.76in /  1007.7hPa Calm   3.0mph /  4.8km/h 89% 0.02in /  0.51mm 0.0 W/m2
02:50 61.2 °F /  16.2 °C 57.9 °F /  14.4 °C 29.76in /  1007.7hPa South 4.0mph /  6.4km/h 6.0mph /  9.7km/h 89% 0.02in /  0.51mm 0.0 W/m2
02:56 61.2 °F /  16.2 °C 57.9 °F /  14.4 °C 29.75in /  1007.3hPa SSW 0.9mph /  1.4km/h 1.0mph /  1.6km/h 89% 0.02in /  0.51mm 0.0 W/m2
03:02 61.3 °F /  16.3 °C 58.1 °F /  14.5 °C 29.75in /  1007.3hPa Calm   3.0mph /  4.8km/h 89% 0.02in /  0.51mm 0.0 W/m2
03:08 61.3 °F /  16.3 °C 57.7 °F /  14.3 °C 29.75in /  1007.3hPa Calm   2.0mph /  3.2km/h 88% 0.01in /  0.25mm 0.0 W/m2
03:14 61.5 °F /  16.4 °C 57.9 °F /  14.4 °C 29.75in /  1007.3hPa Calm   1.0mph /  1.6km/h 88% 0.01in /  0.25mm 0.0 W/m2
03:20 61.5 °F /  16.4 °C 57.9 °F /  14.4 °C 29.75in /  1007.3hPa Calm   1.0mph /  1.6km/h 88% 0.01in /  0.25mm 0.0 W/m2
03:26 61.5 °F /  16.4 °C 57.6 °F /  14.2 °C 29.75in /  1007.3hPa SE 2.9mph /  4.7km/h 5.0mph /  8km/h 87% 0.00in /  0mm 0.0 W/m2
03:32 61.5 °F /  16.4 °C 57.6 °F /  14.2 °C 29.74in /  1007hPa SSE 2.0mph /  3.2km/h 4.0mph /  6.4km/h 87% 0.00in /  0mm 0.0 W/m2
03:38 61.5 °F /  16.4 °C 57.6 °F /  14.2 °C 29.73in /  1006.7hPa ESE 2.0mph /  3.2km/h 4.0mph /  6.4km/h 87% 0.00in /  0mm 0.0 W/m2
03:44 61.7 °F /  16.5 °C 57.7 °F /  14.3 °C 29.73in /  1006.7hPa SE 2.0mph /  3.2km/h 4.0mph /  6.4km/h 87% 0.00in /  0mm 0.0 W/m2
03:50 61.7 °F /  16.5 °C 57.7 °F /  14.3 °C 29.73in /  1006.7hPa SSE 0.9mph /  1.4km/h 2.0mph /  3.2km/h 87% 0.00in /  0mm 0.0 W/m2
03:56 61.7 °F /  16.5 °C 57.4 °F /  14.1 °C 29.73in /  1006.7hPa ENE 0.9mph /  1.4km/h 1.0mph /  1.6km/h 86% 0.00in /  0mm 0.0 W/m2
04:02 61.7 °F /  16.5 °C 57.7 °F /  14.3 °C 29.73in /  1006.7hPa ENE 0.9mph /  1.4km/h 1.0mph /  1.6km/h 87% 0.00in /  0mm 0.0 W/m2
04:08 61.7 °F /  16.5 °C 57.7 °F /  14.3 °C 29.73in /  1006.7hPa Calm   1.0mph /  1.6km/h 87% 0.00in /  0mm 0.0 W/m2
04:15 61.7 °F /  16.5 °C 57.7 °F /  14.3 °C 29.73in /  1006.7hPa Calm     87% 0.00in /  0mm 0.0 W/m2
04:20 61.7 °F /  16.5 °C 58.1 °F /  14.5 °C 29.73in /  1006.7hPa Calm   1.0mph /  1.6km/h 88% 0.00in /  0mm 0.0 W/m2
04:26 61.7 °F /  16.5 °C 58.1 °F /  14.5 °C 29.73in /  1006.7hPa Calm     88% 0.00in /  0mm 0.0 W/m2
04:32 61.7 °F /  16.5 °C 58.1 °F /  14.5 °C 29.73in /  1006.7hPa Calm   1.0mph /  1.6km/h 88% 0.00in /  0mm 0.0 W/m2
04:38 61.7 °F /  16.5 °C 58.5 °F /  14.7 °C 29.73in /  1006.7hPa East 0.9mph /  1.4km/h 3.0mph /  4.8km/h 89% 0.00in /  0mm 0.0 W/m2
04:44 61.7 °F /  16.5 °C 58.5 °F /  14.7 °C 29.73in /  1006.7hPa ENE 0.9mph /  1.4km/h 2.0mph /  3.2km/h 89% 0.00in /  0mm 0.0 W/m2
04:50 61.5 °F /  16.4 °C 58.3 °F /  14.6 °C 29.73in /  1006.7hPa SE 2.9mph /  4.7km/h 5.0mph /  8km/h 89% 0.00in /  0mm 0.0 W/m2
04:56 61.5 °F /  16.4 °C 58.3 °F /  14.6 °C 29.73in /  1006.7hPa ESE 4.9mph /  7.9km/h 5.0mph /  8km/h 89% 0.00in /  0mm 0.0 W/m2
05:02 61.3 °F /  16.3 °C 58.1 °F /  14.5 °C 29.73in /  1006.7hPa Calm   3.0mph /  4.8km/h 89% 0.00in /  0mm 0.0 W/m2
05:08 61.3 °F /  16.3 °C 58.1 °F /  14.5 °C 29.74in /  1007hPa Calm   3.0mph /  4.8km/h 89% 0.00in /  0mm 0.0 W/m2
05:14 61.2 °F /  16.2 °C 57.9 °F /  14.4 °C 29.74in /  1007hPa Calm   1.0mph /  1.6km/h 89% 0.00in /  0mm 0.0 W/m2
05:20 61.2 °F /  16.2 °C 58.3 °F /  14.6 °C 29.74in /  1007hPa Calm   1.0mph /  1.6km/h 90% 0.00in /  0mm 0.0 W/m2
05:26 61.2 °F /  16.2 °C 58.3 °F /  14.6 °C 29.74in /  1007hPa NE 0.9mph /  1.4km/h 2.0mph /  3.2km/h 90% 0.00in /  0mm 0.0 W/m2
05:32 61.3 °F /  16.3 °C 58.6 °F /  14.8 °C 29.74in /  1007hPa Calm   1.0mph /  1.6km/h 91% 0.00in /  0mm 0.0 W/m2
05:38 61.3 °F /  16.3 °C 58.6 °F /  14.8 °C 29.74in /  1007hPa Calm     91% 0.00in /  0mm 0.0 W/m2
05:44 61.3 °F /  16.3 °C 58.6 °F /  14.8 °C 29.74in /  1007hPa Calm     91% 0.00in /  0mm 0.0 W/m2
05:51 61.3 °F /  16.3 °C 58.6 °F /  14.8 °C 29.74in /  1007hPa Calm     91% 0.00in /  0mm 0.0 W/m2
05:57 61.3 °F /  16.3 °C 58.6 °F /  14.8 °C 29.75in /  1007.3hPa Calm     91% 0.00in /  0mm 0.0 W/m2
06:03 61.3 °F /  16.3 °C 58.6 °F /  14.8 °C 29.75in /  1007.3hPa Calm     91% 0.00in /  0mm 0.0 W/m2
06:09 61.3 °F /  16.3 °C 58.6 °F /  14.8 °C 29.75in /  1007.3hPa Calm     91% 0.00in /  0mm 0.0 W/m2
06:15 61.3 °F /  16.3 °C 58.6 °F /  14.8 °C 29.76in /  1007.7hPa Calm     91% 0.00in /  0mm 0.0 W/m2
06:21 61.3 °F /  16.3 °C 58.6 °F /  14.8 °C 29.76in /  1007.7hPa Calm     91% 0.00in /  0mm 0.0 W/m2
06:27 61.2 °F /  16.2 °C 58.5 °F /  14.7 °C 29.76in /  1007.7hPa Calm     91% 0.00in /  0mm 0.0 W/m2
06:33 61.0 °F /  16.1 °C 58.1 °F /  14.5 °C 29.77in /  1008hPa Calm     90% 0.00in /  0mm 0.0 W/m2
06:39 61.0 °F /  16.1 °C 58.1 °F /  14.5 °C 29.77in /  1008hPa Calm     90% 0.00in /  0mm 0.0 W/m2
06:45 60.8 °F /  16 °C 57.9 °F /  14.4 °C 29.77in /  1008hPa Calm     90% 0.00in /  0mm 0.0 W/m2
06:51 60.6 °F /  15.9 °C 57.7 °F /  14.3 °C 29.77in /  1008hPa Calm     90% 0.00in /  0mm 0.0 W/m2
06:57 60.6 °F /  15.9 °C 57.7 °F /  14.3 °C 29.77in /  1008hPa Calm     90% 0.00in /  0mm 0.0 W/m2
07:03 60.4 °F /  15.8 °C 57.7 °F /  14.3 °C 29.78in /  1008.4hPa Calm     91% 0.00in /  0mm 5.0 W/m2
07:09 60.4 °F /  15.8 °C 57.7 °F /  14.3 °C 29.77in /  1008hPa Calm     91% 0.00in /  0mm 7.0 W/m2
07:15 60.8 °F /  16 °C 58.5 °F /  14.7 °C 29.78in /  1008.4hPa Calm   1.0mph /  1.6km/h 92% 0.00in /  0mm 9.0 W/m2
07:21 61.2 °F /  16.2 °C 58.8 °F /  14.9 °C 29.78in /  1008.4hPa ESE 0.9mph /  1.4km/h 4.0mph /  6.4km/h 92% 0.00in /  0mm 11.0 W/m2
07:27 61.3 °F /  16.3 °C 59.0 °F /  15 °C 29.78in /  1008.4hPa SE 0.9mph /  1.4km/h 2.0mph /  3.2km/h 92% 0.00in /  0mm 12.0 W/m2
07:33 61.7 °F /  16.5 °C 59.0 °F /  15 °C 29.78in /  1008.4hPa SE 0.9mph /  1.4km/h 1.0mph /  1.6km/h 91% 0.00in /  0mm 18.0 W/m2
07:39 62.1 °F /  16.7 °C 59.4 °F /  15.2 °C 29.78in /  1008.4hPa Calm   3.0mph /  4.8km/h 91% 0.00in /  0mm 23.0 W/m2
07:45 62.4 °F /  16.9 °C 59.7 °F /  15.4 °C 29.78in /  1008.4hPa Calm   2.0mph /  3.2km/h 91% 0.00in /  0mm 21.0 W/m2
07:51 62.8 °F /  17.1 °C 60.1 °F /  15.6 °C 29.78in /  1008.4hPa Calm   2.0mph /  3.2km/h 91% 0.00in /  0mm 26.0 W/m2
07:57 63.0 °F /  17.2 °C 59.9 °F /  15.5 °C 29.78in /  1008.4hPa Calm   3.0mph /  4.8km/h 90% 0.00in /  0mm 26.0 W/m2
08:03 63.1 °F /  17.3 °C 60.1 °F /  15.6 °C 29.78in /  1008.4hPa SW 0.9mph /  1.4km/h 1.0mph /  1.6km/h 90% 0.00in /  0mm 35.0 W/m2
08:09 63.3 °F /  17.4 °C 60.1 °F /  15.6 °C 29.77in /  1008hPa ESE 0.9mph /  1.4km/h 3.0mph /  4.8km/h 89% 0.00in /  0mm 30.0 W/m2
08:15 63.7 °F /  17.6 °C 60.1 °F /  15.6 °C 29.78in /  1008.4hPa Calm   3.0mph /  4.8km/h 88% 0.00in /  0mm 32.0 W/m2
08:21 64.0 °F /  17.8 °C 60.4 °F /  15.8 °C 29.78in /  1008.4hPa South 2.0mph /  3.2km/h 4.0mph /  6.4km/h 88% 0.00in /  0mm 33.0 W/m2
08:27 64.4 °F /  18 °C 60.8 °F /  16 °C 29.78in /  1008.4hPa Calm   5.0mph /  8km/h 88% 0.00in /  0mm 33.0 W/m2
08:33 65.1 °F /  18.4 °C 61.2 °F /  16.2 °C 29.78in /  1008.4hPa ENE 0.9mph /  1.4km/h 2.0mph /  3.2km/h 87% 0.00in /  0mm 35.0 W/m2
08:40 65.7 °F /  18.7 °C 61.3 °F /  16.3 °C 29.79in /  1008.7hPa ENE 2.9mph /  4.7km/h 6.0mph /  9.7km/h 86% 0.00in /  0mm 39.0 W/m2
08:46 66.0 °F /  18.9 °C 61.3 °F /  16.3 °C 29.79in /  1008.7hPa North 4.0mph /  6.4km/h 6.0mph /  9.7km/h 85% 0.00in /  0mm 37.0 W/m2
08:52 66.6 °F /  19.2 °C 61.5 °F /  16.4 °C 29.79in /  1008.7hPa East 4.0mph /  6.4km/h 6.0mph /  9.7km/h 84% 0.00in /  0mm 37.0 W/m2
08:58 66.7 °F /  19.3 °C 61.3 °F /  16.3 °C 29.78in /  1008.4hPa East 2.0mph /  3.2km/h 6.0mph /  9.7km/h 83% 0.00in /  0mm 39.0 W/m2
09:04 67.3 °F /  19.6 °C 61.5 °F /  16.4 °C 29.78in /  1008.4hPa North 2.9mph /  4.7km/h 11.0mph /  17.7km/h 82% 0.00in /  0mm 40.0 W/m2
09:10 67.6 °F /  19.8 °C 61.5 °F /  16.4 °C 29.78in /  1008.4hPa East 0.9mph /  1.4km/h 6.0mph /  9.7km/h 81% 0.00in /  0mm 42.0 W/m2
09:16 68.2 °F /  20.1 °C 61.3 °F /  16.3 °C 29.78in /  1008.4hPa Calm   4.0mph /  6.4km/h 79% 0.00in /  0mm 49.0 W/m2
09:22 68.4 °F /  20.2 °C 61.5 °F /  16.4 °C 29.79in /  1008.7hPa ESE 0.9mph /  1.4km/h 7.0mph /  11.3km/h 79% 0.00in /  0mm 60.0 W/m2
09:28 68.9 °F /  20.5 °C 61.3 °F /  16.3 °C 29.78in /  1008.4hPa ENE 2.9mph /  4.7km/h 9.0mph /  14.5km/h 77% 0.00in /  0mm 199.0 W/m2
09:34 69.3 °F /  20.7 °C 61.0 °F /  16.1 °C 29.79in /  1008.7hPa NE 4.0mph /  6.4km/h 7.0mph /  11.3km/h 75% 0.00in /  0mm 346.0 W/m2
09:40 69.6 °F /  20.9 °C 61.7 °F /  16.5 °C 29.79in /  1008.7hPa East 2.0mph /  3.2km/h 7.0mph /  11.3km/h 76% 0.00in /  0mm 615.0 W/m2
09:47 70.2 °F /  21.2 °C 61.5 °F /  16.4 °C 29.79in /  1008.7hPa East 4.0mph /  6.4km/h 9.0mph /  14.5km/h 74% 0.00in /  0mm 643.0 W/m2
09:53 70.7 °F /  21.5 °C 61.2 °F /  16.2 °C 29.79in /  1008.7hPa Calm   6.0mph /  9.7km/h 72% 0.00in /  0mm 696.0 W/m2
09:59 71.4 °F /  21.9 °C 61.5 °F /  16.4 °C 29.79in /  1008.7hPa SSE 4.9mph /  7.9km/h 6.0mph /  9.7km/h 71% 0.00in /  0mm 729.0 W/m2
10:05 72.1 °F /  22.3 °C 61.0 °F /  16.1 °C 29.79in /  1008.7hPa ESE 4.9mph /  7.9km/h 8.0mph /  12.9km/h 68% 0.00in /  0mm 747.0 W/m2
10:11 73.0 °F /  22.8 °C 60.6 °F /  15.9 °C 29.79in /  1008.7hPa ESE 2.9mph /  4.7km/h 7.0mph /  11.3km/h 65% 0.00in /  0mm 789.0 W/m2
10:17 73.9 °F /  23.3 °C 61.0 °F /  16.1 °C 29.78in /  1008.4hPa NNE 6.9mph /  11.1km/h 9.0mph /  14.5km/h 64% 0.00in /  0mm 784.0 W/m2
10:23 75.0 °F /  23.9 °C 61.2 °F /  16.2 °C 29.78in /  1008.4hPa ESE 6.0mph /  9.7km/h 12.0mph /  19.3km/h 62% 0.00in /  0mm 805.0 W/m2
10:29 75.9 °F /  24.4 °C 60.6 °F /  15.9 °C 29.78in /  1008.4hPa SSE 0.9mph /  1.4km/h 7.0mph /  11.3km/h 59% 0.00in /  0mm 802.0 W/m2
10:35 76.6 °F /  24.8 °C 60.3 °F /  15.7 °C 29.78in /  1008.4hPa ENE 4.9mph /  7.9km/h 8.0mph /  12.9km/h 57% 0.00in /  0mm 851.0 W/m2
10:41 77.2 °F /  25.1 °C 59.7 °F /  15.4 °C 29.78in /  1008.4hPa SE 4.9mph /  7.9km/h 9.0mph /  14.5km/h 55% 0.00in /  0mm 816.0 W/m2
10:48 77.2 °F /  25.1 °C 58.6 °F /  14.8 °C 29.78in /  1008.4hPa East 4.0mph /  6.4km/h 15.0mph /  24.1km/h 53% 0.00in /  0mm 831.0 W/m2
10:54 77.4 °F /  25.2 °C 59.4 °F /  15.2 °C 29.78in /  1008.4hPa SSE 10.1mph /  16.3km/h 10.1mph /  16.3km/h 54% 0.00in /  0mm 844.0 W/m2
11:00 77.5 °F /  25.3 °C 59.5 °F /  15.3 °C 29.77in /  1008hPa ENE 0.9mph /  1.4km/h 5.0mph /  8km/h 54% 0.00in /  0mm 860.0 W/m2
11:06 78.1 °F /  25.6 °C 59.5 °F /  15.3 °C 29.77in /  1008hPa ESE 4.9mph /  7.9km/h 10.0mph /  16.1km/h 53% 0.00in /  0mm 875.0 W/m2
11:12 78.3 °F /  25.7 °C 59.2 °F /  15.1 °C 29.77in /  1008hPa ESE 2.0mph /  3.2km/h 15.0mph /  24.1km/h 52% 0.00in /  0mm 904.0 W/m2
11:18 78.6 °F /  25.9 °C 59.5 °F /  15.3 °C 29.77in /  1008hPa ENE 8.1mph /  13km/h 8.1mph /  13km/h 52% 0.00in /  0mm 918.0 W/m2
11:24 78.8 °F /  26 °C 59.2 °F /  15.1 °C 29.77in /  1008hPa NE 4.9mph /  7.9km/h 10.0mph /  16.1km/h 51% 0.00in /  0mm 928.0 W/m2
11:30 79.2 °F /  26.2 °C 59.5 °F /  15.3 °C 29.77in /  1008hPa NNE 6.9mph /  11.1km/h 11.0mph /  17.7km/h 51% 0.00in /  0mm 958.0 W/m2
11:37 79.2 °F /  26.2 °C 59.5 °F /  15.3 °C 29.77in /  1008hPa ENE 2.9mph /  4.7km/h 12.0mph /  19.3km/h 51% 0.00in /  0mm 1018.0 W/m2
11:43 79.3 °F /  26.3 °C 59.7 °F /  15.4 °C 29.77in /  1008hPa ENE 10.1mph /  16.3km/h 13.0mph /  20.9km/h 51% 0.00in /  0mm 1090.0 W/m2
11:49 79.9 °F /  26.6 °C 59.5 °F /  15.3 °C 29.77in /  1008hPa NE 6.0mph /  9.7km/h 10.0mph /  16.1km/h 50% 0.00in /  0mm 1099.0 W/m2
11:55 80.1 °F /  26.7 °C 59.7 °F /  15.4 °C 29.77in /  1008hPa NNE 4.0mph /  6.4km/h 9.0mph /  14.5km/h 50% 0.00in /  0mm 1044.0 W/m2
12:01 80.1 °F /  26.7 °C 59.7 °F /  15.4 °C 29.77in /  1008hPa SE 6.9mph /  11.1km/h 13.0mph /  20.9km/h 50% 0.00in /  0mm 229.0 W/m2
12:07 79.5 °F /  26.4 °C 59.2 °F /  15.1 °C 29.77in /  1008hPa ESE 0.9mph /  1.4km/h 10.0mph /  16.1km/h 50% 0.00in /  0mm 1005.0 W/m2
12:13 79.7 °F /  26.5 °C 58.8 °F /  14.9 °C 29.76in /  1007.7hPa SE 4.9mph /  7.9km/h 7.0mph /  11.3km/h 49% 0.00in /  0mm 227.0 W/m2
12:19 79.2 °F /  26.2 °C 59.0 °F /  15 °C 29.76in /  1007.7hPa ENE 4.0mph /  6.4km/h 8.0mph /  12.9km/h 50% 0.00in /  0mm 1041.0 W/m2
12:25 79.5 °F /  26.4 °C 58.1 °F /  14.5 °C 29.76in /  1007.7hPa Calm   5.0mph /  8km/h 48% 0.00in /  0mm 1093.0 W/m2
12:31 80.2 °F /  26.8 °C 59.9 °F /  15.5 °C 29.76in /  1007.7hPa SE 10.1mph /  16.3km/h 10.1mph /  16.3km/h 50% 0.00in /  0mm 1009.0 W/m2
12:38 81.0 °F /  27.2 °C 59.4 °F /  15.2 °C 29.75in /  1007.3hPa SE 8.1mph /  13km/h 9.0mph /  14.5km/h 48% 0.00in /  0mm 1041.0 W/m2
12:44 81.1 °F /  27.3 °C 59.0 °F /  15 °C 29.75in /  1007.3hPa East 4.9mph /  7.9km/h 14.0mph /  22.5km/h 47% 0.00in /  0mm 1037.0 W/m2
12:50 81.7 °F /  27.6 °C 59.5 °F /  15.3 °C 29.75in /  1007.3hPa East 8.1mph /  13km/h 12.0mph /  19.3km/h 47% 0.00in /  0mm 1074.0 W/m2
12:56 81.9 °F /  27.7 °C 59.7 °F /  15.4 °C 29.75in /  1007.3hPa ESE 4.0mph /  6.4km/h 11.0mph /  17.7km/h 47% 0.00in /  0mm 1114.0 W/m2
13:02 81.9 °F /  27.7 °C 58.5 °F /  14.7 °C 29.75in /  1007.3hPa SSE 2.9mph /  4.7km/h 8.0mph /  12.9km/h 45% 0.00in /  0mm 267.0 W/m2
13:08 81.9 °F /  27.7 °C 57.7 °F /  14.3 °C 29.74in /  1007hPa ENE 6.0mph /  9.7km/h 6.0mph /  9.7km/h 44% 0.00in /  0mm 220.0 W/m2
13:14 81.7 °F /  27.6 °C 58.3 °F /  14.6 °C 29.74in /  1007hPa NE 6.0mph /  9.7km/h 13.0mph /  20.9km/h 45% 0.00in /  0mm 1090.0 W/m2
13:21 81.7 °F /  27.6 °C 58.3 °F /  14.6 °C 29.73in /  1006.7hPa East 4.9mph /  7.9km/h 9.0mph /  14.5km/h 45% 0.00in /  0mm 1028.0 W/m2
13:27 81.9 °F /  27.7 °C 58.5 °F /  14.7 °C 29.73in /  1006.7hPa SSE 6.9mph /  11.1km/h 10.0mph /  16.1km/h 45% 0.00in /  0mm 1079.0 W/m2
13:33 82.6 °F /  28.1 °C 58.5 °F /  14.7 °C 29.73in /  1006.7hPa NE 2.9mph /  4.7km/h 8.0mph /  12.9km/h 44% 0.00in /  0mm 1130.0 W/m2
13:39 82.9 °F /  28.3 °C 58.8 °F /  14.9 °C 29.73in /  1006.7hPa East 4.0mph /  6.4km/h 7.0mph /  11.3km/h 44% 0.00in /  0mm 1109.0 W/m2
13:45 82.9 °F /  28.3 °C 58.1 °F /  14.5 °C 29.73in /  1006.7hPa South 2.9mph /  4.7km/h 13.0mph /  20.9km/h 43% 0.00in /  0mm 608.0 W/m2
13:51 82.0 °F /  27.8 °C 56.7 °F /  13.7 °C 29.73in /  1006.7hPa SSE 8.1mph /  13km/h 9.0mph /  14.5km/h 42% 0.00in /  0mm 251.0 W/m2
13:57 81.5 °F /  27.5 °C 57.6 °F /  14.2 °C 29.72in /  1006.3hPa East 6.0mph /  9.7km/h 8.0mph /  12.9km/h 44% 0.00in /  0mm 1056.0 W/m2
14:04 81.9 °F /  27.7 °C 57.2 °F /  14 °C 29.72in /  1006.3hPa East 2.0mph /  3.2km/h 8.0mph /  12.9km/h 43% 0.00in /  0mm 160.0 W/m2
14:10 82.2 °F /  27.9 °C 57.6 °F /  14.2 °C 29.72in /  1006.3hPa SE 4.9mph /  7.9km/h 8.0mph /  12.9km/h 43% 0.00in /  0mm 1049.0 W/m2
14:16 82.4 °F /  28 °C 55.6 °F /  13.1 °C 29.72in /  1006.3hPa SSE 6.9mph /  11.1km/h 10.0mph /  16.1km/h 40% 0.00in /  0mm 1086.0 W/m2
14:22 82.6 °F /  28.1 °C 56.5 °F /  13.6 °C 29.72in /  1006.3hPa ENE 4.0mph /  6.4km/h 11.0mph /  17.7km/h 41% 0.00in /  0mm 1032.0 W/m2
14:28 82.6 °F /  28.1 °C 55.8 °F /  13.2 °C 29.72in /  1006.3hPa ENE 4.9mph /  7.9km/h 8.0mph /  12.9km/h 40% 0.00in /  0mm 995.0 W/m2
14:34 82.8 °F /  28.2 °C 56.7 °F /  13.7 °C 29.72in /  1006.3hPa East 4.0mph /  6.4km/h 8.0mph /  12.9km/h 41% 0.00in /  0mm 1011.0 W/m2
14:40 82.9 °F /  28.3 °C 55.4 °F /  13 °C 29.72in /  1006.3hPa ENE 4.9mph /  7.9km/h 12.0mph /  19.3km/h 39% 0.00in /  0mm 155.0 W/m2
14:46 83.1 °F /  28.4 °C 54.9 °F /  12.7 °C 29.72in /  1006.3hPa SSE 2.0mph /  3.2km/h 14.0mph /  22.5km/h 38% 0.00in /  0mm 947.0 W/m2
14:53 83.3 °F /  28.5 °C 56.5 °F /  13.6 °C 29.72in /  1006.3hPa SE 6.0mph /  9.7km/h 10.0mph /  16.1km/h 40% 0.00in /  0mm 942.0 W/m2
14:59 83.7 °F /  28.7 °C 56.1 °F /  13.4 °C 29.72in /  1006.3hPa SE 2.9mph /  4.7km/h 13.0mph /  20.9km/h 39% 0.00in /  0mm 912.0 W/m2
15:05 83.7 °F /  28.7 °C 55.4 °F /  13 °C 29.72in /  1006.3hPa ESE 11.0mph /  17.7km/h 13.0mph /  20.9km/h 38% 0.00in /  0mm 137.0 W/m2
15:11 82.8 °F /  28.2 °C 55.2 °F /  12.9 °C 29.71in /  1006hPa SE 2.0mph /  3.2km/h 16.0mph /  25.7km/h 39% 0.00in /  0mm 202.0 W/m2
15:17 82.2 °F /  27.9 °C 55.6 °F /  13.1 °C 29.71in /  1006hPa SE 4.9mph /  7.9km/h 10.0mph /  16.1km/h 40% 0.00in /  0mm 902.0 W/m2
15:23 82.6 °F /  28.1 °C 57.2 °F /  14 °C 29.71in /  1006hPa SSE 6.9mph /  11.1km/h 11.0mph /  17.7km/h 42% 0.00in /  0mm 967.0 W/m2
15:29 82.0 °F /  27.8 °C 56.7 °F /  13.7 °C 29.71in /  1006hPa ESE 4.0mph /  6.4km/h 13.0mph /  20.9km/h 42% 0.00in /  0mm 322.0 W/m2
15:36 81.7 °F /  27.6 °C 56.3 °F /  13.5 °C 29.71in /  1006hPa SE 6.0mph /  9.7km/h 7.0mph /  11.3km/h 42% 0.00in /  0mm 893.0 W/m2
15:42 82.0 °F /  27.8 °C 55.9 °F /  13.3 °C 29.71in /  1006hPa SSE 8.1mph /  13km/h 14.0mph /  22.5km/h 41% 0.00in /  0mm 828.0 W/m2
15:48 82.2 °F /  27.9 °C 56.1 °F /  13.4 °C 29.71in /  1006hPa NE 4.0mph /  6.4km/h 12.0mph /  19.3km/h 41% 0.00in /  0mm 763.0 W/m2
15:54 81.5 °F /  27.5 °C 54.9 °F /  12.7 °C 29.71in /  1006hPa ESE 6.0mph /  9.7km/h 8.0mph /  12.9km/h 40% 0.00in /  0mm 155.0 W/m2
16:00 81.1 °F /  27.3 °C 55.2 °F /  12.9 °C 29.70in /  1005.6hPa SSE 8.9mph /  14.3km/h 17.0mph /  27.4km/h 41% 0.00in /  0mm 754.0 W/m2
16:06 81.7 °F /  27.6 °C 55.8 °F /  13.2 °C 29.71in /  1006hPa NE 2.0mph /  3.2km/h 11.0mph /  17.7km/h 41% 0.00in /  0mm 656.0 W/m2
16:12 81.7 °F /  27.6 °C 54.3 °F /  12.4 °C 29.71in /  1006hPa SE 15.0mph /  24.1km/h 18.0mph /  29km/h 39% 0.00in /  0mm 179.0 W/m2
16:19 81.3 °F /  27.4 °C 54.7 °F /  12.6 °C 29.70in /  1005.6hPa SE 4.0mph /  6.4km/h 10.0mph /  16.1km/h 40% 0.00in /  0mm 619.0 W/m2
16:25 81.9 °F /  27.7 °C 54.5 °F /  12.5 °C 29.70in /  1005.6hPa SE 6.0mph /  9.7km/h 11.0mph /  17.7km/h 39% 0.00in /  0mm 594.0 W/m2
16:31 81.9 °F /  27.7 °C 54.5 °F /  12.5 °C 29.70in /  1005.6hPa East 4.0mph /  6.4km/h 9.0mph /  14.5km/h 39% 0.00in /  0mm 580.0 W/m2
16:37 82.0 °F /  27.8 °C 53.2 °F /  11.8 °C 29.70in /  1005.6hPa ESE 4.9mph /  7.9km/h 11.0mph /  17.7km/h 37% 0.00in /  0mm 580.0 W/m2
16:43 82.0 °F /  27.8 °C 54.0 °F /  12.2 °C 29.70in /  1005.6hPa East 8.1mph /  13km/h 13.0mph /  20.9km/h 38% 0.00in /  0mm 541.0 W/m2
16:49 82.0 °F /  27.8 °C 54.0 °F /  12.2 °C 29.70in /  1005.6hPa SSE 6.0mph /  9.7km/h 10.0mph /  16.1km/h 38% 0.00in /  0mm 519.0 W/m2
16:55 82.2 °F /  27.9 °C 55.6 °F /  13.1 °C 29.70in /  1005.6hPa ESE 0.9mph /  1.4km/h 6.0mph /  9.7km/h 40% 0.00in /  0mm 482.0 W/m2
17:01 82.2 °F /  27.9 °C 54.9 °F /  12.7 °C 29.70in /  1005.6hPa ESE 11.0mph /  17.7km/h 13.0mph /  20.9km/h 39% 0.00in /  0mm 466.0 W/m2
17:07 82.0 °F /  27.8 °C 54.7 °F /  12.6 °C 29.71in /  1006hPa ESE 4.9mph /  7.9km/h 9.0mph /  14.5km/h 39% 0.00in /  0mm 427.0 W/m2
17:13 81.3 °F /  27.4 °C 53.2 °F /  11.8 °C 29.71in /  1006hPa SE 8.1mph /  13km/h 14.0mph /  22.5km/h 38% 0.00in /  0mm 417.0 W/m2
17:20 81.1 °F /  27.3 °C 53.1 °F /  11.7 °C 29.71in /  1006hPa SE 4.0mph /  6.4km/h 10.0mph /  16.1km/h 38% 0.00in /  0mm 381.0 W/m2
17:26 81.3 °F /  27.4 °C 54.0 °F /  12.2 °C 29.71in /  1006hPa SE 4.9mph /  7.9km/h 5.0mph /  8km/h 39% 0.00in /  0mm 364.0 W/m2
17:32 81.7 °F /  27.6 °C 53.6 °F /  12 °C 29.71in /  1006hPa ESE 8.9mph /  14.3km/h 11.0mph /  17.7km/h 38% 0.00in /  0mm 338.0 W/m2
17:38 81.3 °F /  27.4 °C 53.2 °F /  11.8 °C 29.71in /  1006hPa SSE 6.9mph /  11.1km/h 17.0mph /  27.4km/h 38% 0.00in /  0mm 304.0 W/m2
17:44 81.1 °F /  27.3 °C 53.8 °F /  12.1 °C 29.71in /  1006hPa SE 4.0mph /  6.4km/h 8.0mph /  12.9km/h 39% 0.00in /  0mm 141.0 W/m2
17:50 81.0 °F /  27.2 °C 52.9 °F /  11.6 °C 29.71in /  1006hPa ESE 6.0mph /  9.7km/h 11.0mph /  17.7km/h 38% 0.00in /  0mm 257.0 W/m2
17:56 80.6 °F /  27 °C 52.7 °F /  11.5 °C 29.71in /  1006hPa ESE 2.9mph /  4.7km/h 10.0mph /  16.1km/h 38% 0.00in /  0mm 230.0 W/m2
18:02 80.8 °F /  27.1 °C 53.6 °F /  12 °C 29.71in /  1006hPa SE 6.0mph /  9.7km/h 12.0mph /  19.3km/h 39% 0.00in /  0mm 206.0 W/m2
18:08 80.2 °F /  26.8 °C 53.1 °F /  11.7 °C 29.72in /  1006.3hPa SE 8.1mph /  13km/h 13.0mph /  20.9km/h 39% 0.00in /  0mm 186.0 W/m2
18:15 80.1 °F /  26.7 °C 53.6 °F /  12 °C 29.72in /  1006.3hPa East 4.0mph /  6.4km/h 9.0mph /  14.5km/h 40% 0.00in /  0mm 165.0 W/m2
18:21 79.9 °F /  26.6 °C 52.7 °F /  11.5 °C 29.72in /  1006.3hPa SSE 2.0mph /  3.2km/h 11.0mph /  17.7km/h 39% 0.00in /  0mm 139.0 W/m2
18:27 79.9 °F /  26.6 °C 52.7 °F /  11.5 °C 29.72in /  1006.3hPa South 4.9mph /  7.9km/h 10.0mph /  16.1km/h 39% 0.00in /  0mm 111.0 W/m2
18:33 79.5 °F /  26.4 °C 53.1 °F /  11.7 °C 29.72in /  1006.3hPa SE 6.9mph /  11.1km/h 9.0mph /  14.5km/h 40% 0.00in /  0mm 86.0 W/m2
18:39 79.2 °F /  26.2 °C 52.7 °F /  11.5 °C 29.72in /  1006.3hPa SE 4.9mph /  7.9km/h 11.0mph /  17.7km/h 40% 0.00in /  0mm 63.0 W/m2
18:45 79.0 °F /  26.1 °C 53.2 °F /  11.8 °C 29.72in /  1006.3hPa SSE 8.9mph /  14.3km/h 10.0mph /  16.1km/h 41% 0.00in /  0mm 40.0 W/m2
18:51 78.4 °F /  25.8 °C 53.4 °F /  11.9 °C 29.72in /  1006.3hPa East 4.0mph /  6.4km/h 9.0mph /  14.5km/h 42% 0.00in /  0mm 19.0 W/m2
18:57 77.9 °F /  25.5 °C 52.9 °F /  11.6 °C 29.72in /  1006.3hPa SE 2.9mph /  4.7km/h 9.0mph /  14.5km/h 42% 0.00in /  0mm 14.0 W/m2
19:04 77.2 °F /  25.1 °C 52.9 °F /  11.6 °C 29.73in /  1006.7hPa South 4.9mph /  7.9km/h 11.0mph /  17.7km/h 43% 0.00in /  0mm 9.0 W/m2
19:10 76.8 °F /  24.9 °C 53.2 °F /  11.8 °C 29.73in /  1006.7hPa SE 2.0mph /  3.2km/h 6.0mph /  9.7km/h 44% 0.00in /  0mm 5.0 W/m2
19:16 76.3 °F /  24.6 °C 52.7 °F /  11.5 °C 29.73in /  1006.7hPa SE 6.0mph /  9.7km/h 8.0mph /  12.9km/h 44% 0.00in /  0mm 0.0 W/m2
19:18 76.3 °F /  24.6 °C 52.7 °F /  11.5 °C 29.73in /  1006.7hPa ESE 6.0mph /  9.7km/h 10.0mph /  16.1km/h 44% 0.00in /  0mm 0.0 W/m2
19:24 75.7 °F /  24.3 °C 52.9 °F /  11.6 °C 29.73in /  1006.7hPa SE 4.0mph /  6.4km/h 6.0mph /  9.7km/h 45% 0.00in /  0mm 0.0 W/m2
19:30 75.4 °F /  24.1 °C 53.2 °F /  11.8 °C 29.74in /  1007hPa ESE 2.0mph /  3.2km/h 6.0mph /  9.7km/h 46% 0.00in /  0mm 0.0 W/m2
19:36 74.8 °F /  23.8 °C 52.7 °F /  11.5 °C 29.74in /  1007hPa ESE 4.0mph /  6.4km/h 6.0mph /  9.7km/h 46% 0.00in /  0mm 0.0 W/m2
19:42 74.7 °F /  23.7 °C 52.5 °F /  11.4 °C 29.74in /  1007hPa SE 4.9mph /  7.9km/h 7.0mph /  11.3km/h 46% 0.00in /  0mm 0.0 W/m2
19:48 74.3 °F /  23.5 °C 52.7 °F /  11.5 °C 29.75in /  1007.3hPa ESE 2.9mph /  4.7km/h 7.0mph /  11.3km/h 47% 0.00in /  0mm 0.0 W/m2
19:55 73.9 °F /  23.3 °C 53.1 °F /  11.7 °C 29.75in /  1007.3hPa SSE 4.0mph /  6.4km/h 7.0mph /  11.3km/h 48% 0.00in /  0mm 0.0 W/m2
20:01 73.8 °F /  23.2 °C 52.9 °F /  11.6 °C 29.75in /  1007.3hPa SE 0.9mph /  1.4km/h 5.0mph /  8km/h 48% 0.00in /  0mm 0.0 W/m2
20:07 73.6 °F /  23.1 °C 52.7 °F /  11.5 °C 29.75in /  1007.3hPa SE 2.0mph /  3.2km/h 6.0mph /  9.7km/h 48% 0.00in /  0mm 0.0 W/m2
20:11 73.6 °F /  23.1 °C 53.2 °F /  11.8 °C 29.75in /  1007.3hPa ESE 2.0mph /  3.2km/h 5.0mph /  8km/h 49% 0.00in /  0mm 0.0 W/m2
20:17 73.2 °F /  22.9 °C 52.9 °F /  11.6 °C 29.75in /  1007.3hPa SE 4.9mph /  7.9km/h 7.0mph /  11.3km/h 49% 0.00in /  0mm 0.0 W/m2
20:23 73.2 °F /  22.9 °C 53.4 °F /  11.9 °C 29.75in /  1007.3hPa ESE 2.9mph /  4.7km/h 5.0mph /  8km/h 50% 0.00in /  0mm 0.0 W/m2
20:29 73.0 °F /  22.8 °C 53.2 °F /  11.8 °C 29.75in /  1007.3hPa SE 2.9mph /  4.7km/h 5.0mph /  8km/h 50% 0.00in /  0mm 0.0 W/m2
20:35 72.9 °F /  22.7 °C 53.6 °F /  12 °C 29.75in /  1007.3hPa Calm   5.0mph /  8km/h 51% 0.00in /  0mm 0.0 W/m2
20:39 72.9 °F /  22.7 °C 53.6 °F /  12 °C 29.76in /  1007.7hPa SE 0.9mph /  1.4km/h 5.0mph /  8km/h 51% 0.00in /  0mm 0.0 W/m2
20:41 72.9 °F /  22.7 °C 53.6 °F /  12 °C 29.76in /  1007.7hPa SE 2.0mph /  3.2km/h 6.0mph /  9.7km/h 51% 0.00in /  0mm 0.0 W/m2
20:43 72.9 °F /  22.7 °C 54.1 °F /  12.3 °C 29.76in /  1007.7hPa SE 0.9mph /  1.4km/h 4.0mph /  6.4km/h 52% 0.00in /  0mm 0.0 W/m2
20:48 72.7 °F /  22.6 °C 53.4 °F /  11.9 °C 29.76in /  1007.7hPa SE 4.0mph /  6.4km/h 6.0mph /  9.7km/h 51% 0.00in /  0mm 0.0 W/m2
20:52 72.7 °F /  22.6 °C 54.0 °F /  12.2 °C 29.76in /  1007.7hPa ESE 4.9mph /  7.9km/h 7.0mph /  11.3km/h 52% 0.00in /  0mm 0.0 W/m2
20:58 72.3 °F /  22.4 °C 53.8 °F /  12.1 °C 29.76in /  1007.7hPa ESE 0.9mph /  1.4km/h 6.0mph /  9.7km/h 52% 0.00in /  0mm 0.0 W/m2
21:00 72.3 °F /  22.4 °C 53.8 °F /  12.1 °C 29.77in /  1008hPa ESE 2.0mph /  3.2km/h 6.0mph /  9.7km/h 52% 0.00in /  0mm 0.0 W/m2
21:06 72.3 °F /  22.4 °C 53.8 °F /  12.1 °C 29.77in /  1008hPa ESE 4.9mph /  7.9km/h 5.0mph /  8km/h 52% 0.00in /  0mm 0.0 W/m2
21:12 72.1 °F /  22.3 °C 54.1 °F /  12.3 °C 29.77in /  1008hPa SE 2.9mph /  4.7km/h 6.0mph /  9.7km/h 53% 0.00in /  0mm 0.0 W/m2
21:18 72.0 °F /  22.2 °C 54.0 °F /  12.2 °C 29.77in /  1008hPa SE 2.9mph /  4.7km/h 6.0mph /  9.7km/h 53% 0.00in /  0mm 0.0 W/m2
21:24 72.0 °F /  22.2 °C 54.0 °F /  12.2 °C 29.77in /  1008hPa SE 2.9mph /  4.7km/h 7.0mph /  11.3km/h 53% 0.00in /  0mm 0.0 W/m2
21:30 72.0 °F /  22.2 °C 54.0 °F /  12.2 °C 29.78in /  1008.4hPa SE 2.9mph /  4.7km/h 6.0mph /  9.7km/h 53% 0.00in /  0mm 0.0 W/m2
21:36 71.8 °F /  22.1 °C 53.8 °F /  12.1 °C 29.78in /  1008.4hPa SE 2.9mph /  4.7km/h 5.0mph /  8km/h 53% 0.00in /  0mm 0.0 W/m2
21:38 71.8 °F /  22.1 °C 53.8 °F /  12.1 °C 29.78in /  1008.4hPa SSE 6.0mph /  9.7km/h 6.0mph /  9.7km/h 53% 0.00in /  0mm 0.0 W/m2
21:45 71.8 °F /  22.1 °C 53.8 °F /  12.1 °C 29.78in /  1008.4hPa ESE 2.0mph /  3.2km/h 7.0mph /  11.3km/h 53% 0.00in /  0mm 0.0 W/m2
21:49 71.8 °F /  22.1 °C 53.8 °F /  12.1 °C 29.78in /  1008.4hPa SE 4.0mph /  6.4km/h 6.0mph /  9.7km/h 53% 0.00in /  0mm 0.0 W/m2
21:55 71.8 °F /  22.1 °C 53.8 °F /  12.1 °C 29.78in /  1008.4hPa ESE 4.0mph /  6.4km/h 8.0mph /  12.9km/h 53% 0.00in /  0mm 0.0 W/m2
22:01 71.8 °F /  22.1 °C 53.2 °F /  11.8 °C 29.78in /  1008.4hPa SE 2.9mph /  4.7km/h 6.0mph /  9.7km/h 52% 0.00in /  0mm 0.0 W/m2
22:07 72.0 °F /  22.2 °C 53.4 °F /  11.9 °C 29.78in /  1008.4hPa ESE 4.9mph /  7.9km/h 8.0mph /  12.9km/h 52% 0.00in /  0mm 0.0 W/m2
22:13 72.0 °F /  22.2 °C 53.4 °F /  11.9 °C 29.78in /  1008.4hPa ESE 4.0mph /  6.4km/h 7.0mph /  11.3km/h 52% 0.00in /  0mm 0.0 W/m2
22:19 72.0 °F /  22.2 °C 53.4 °F /  11.9 °C 29.78in /  1008.4hPa SE 6.0mph /  9.7km/h 8.0mph /  12.9km/h 52% 0.00in /  0mm 0.0 W/m2
22:25 72.0 °F /  22.2 °C 53.4 °F /  11.9 °C 29.78in /  1008.4hPa ESE 2.9mph /  4.7km/h 6.0mph /  9.7km/h 52% 0.00in /  0mm 0.0 W/m2
22:31 72.0 °F /  22.2 °C 54.0 °F /  12.2 °C 29.78in /  1008.4hPa SE 2.0mph /  3.2km/h 7.0mph /  11.3km/h 53% 0.00in /  0mm 0.0 W/m2
22:44 71.6 °F /  22 °C 54.1 °F /  12.3 °C 29.78in /  1008.4hPa ESE 0.9mph /  1.4km/h 4.0mph /  6.4km/h 54% 0.00in /  0mm 0.0 W/m2
22:50 71.4 °F /  21.9 °C 54.0 °F /  12.2 °C 29.78in /  1008.4hPa ESE 6.0mph /  9.7km/h 7.0mph /  11.3km/h 54% 0.00in /  0mm 0.0 W/m2
22:56 71.4 °F /  21.9 °C 54.0 °F /  12.2 °C 29.78in /  1008.4hPa ESE 4.0mph /  6.4km/h 8.0mph /  12.9km/h 54% 0.00in /  0mm 0.0 W/m2
23:02 71.2 °F /  21.8 °C 53.8 °F /  12.1 °C 29.78in /  1008.4hPa SE 2.9mph /  4.7km/h 8.0mph /  12.9km/h 54% 0.00in /  0mm 0.0 W/m2
23:08 71.2 °F /  21.8 °C 53.8 °F /  12.1 °C 29.78in /  1008.4hPa ESE 2.9mph /  4.7km/h 6.0mph /  9.7km/h 54% 0.00in /  0mm 0.0 W/m2
23:14 71.1 °F /  21.7 °C 54.1 °F /  12.3 °C 29.78in /  1008.4hPa SE 4.0mph /  6.4km/h 7.0mph /  11.3km/h 55% 0.00in /  0mm 0.0 W/m2
23:21 71.1 °F /  21.7 °C 54.1 °F /  12.3 °C 29.78in /  1008.4hPa SSE 0.9mph /  1.4km/h 8.0mph /  12.9km/h 55% 0.00in /  0mm 0.0 W/m2
23:27 71.1 °F /  21.7 °C 54.1 °F /  12.3 °C 29.78in /  1008.4hPa ESE 4.9mph /  7.9km/h 7.0mph /  11.3km/h 55% 0.00in /  0mm 0.0 W/m2
23:33 71.2 °F /  21.8 °C 53.2 °F /  11.8 °C 29.78in /  1008.4hPa ESE 4.0mph /  6.4km/h 13.0mph /  20.9km/h 53% 0.00in /  0mm 0.0 W/m2
23:39 71.2 °F /  21.8 °C 53.8 °F /  12.1 °C 29.78in /  1008.4hPa ESE 4.9mph /  7.9km/h 10.0mph /  16.1km/h 54% 0.00in /  0mm 0.0 W/m2
23:45 71.1 °F /  21.7 °C 54.1 °F /  12.3 °C 29.78in /  1008.4hPa SSE 2.9mph /  4.7km/h 9.0mph /  14.5km/h 55% 0.00in /  0mm 0.0 W/m2
23:51 70.9 °F /  21.6 °C 54.3 °F /  12.4 °C 29.78in /  1008.4hPa East 8.1mph /  13km/h 10.0mph /  16.1km/h 56% 0.00in /  0mm 0.0 W/m2
23:57 70.5 °F /  21.4 °C 54.1 °F /  12.3 °C 29.78in /  1008.4hPa East 4.9mph /  7.9km/h 10.0mph /  16.1km/h 56% 0.00in /  0mm 0.0 W/m2
Olympia, Windhoek, Namibia
Compliments of Weather Underground - 3.25 mb